createdAt,value
2018-03-09T00:00:33.217Z,0
2018-03-09T00:01:33.194Z,0
2018-03-09T00:02:33.444Z,0
2018-03-09T00:03:33.168Z,0
2018-03-09T00:04:33.423Z,0
2018-03-09T00:05:33.151Z,0
2018-03-09T00:06:33.149Z,0
2018-03-09T00:07:33.489Z,0
2018-03-09T00:08:33.370Z,0
2018-03-09T00:09:33.359Z,0
2018-03-09T00:10:33.342Z,0
2018-03-09T00:11:33.350Z,0
2018-03-09T00:12:32.839Z,0
2018-03-09T00:13:33.316Z,0
2018-03-09T00:14:33.050Z,0
2018-03-09T00:15:33.035Z,0
2018-03-09T00:16:33.022Z,0
2018-03-09T00:17:33.018Z,0
2018-03-09T00:18:33.261Z,0
2018-03-09T00:19:33.251Z,0
2018-03-09T00:20:33.230Z,0
2018-03-09T00:21:33.223Z,0
2018-03-09T00:22:32.699Z,0
2018-03-09T00:23:33.202Z,0
2018-03-09T00:24:33.251Z,0
2018-03-09T00:25:33.173Z,0
2018-03-09T00:26:33.166Z,0
2018-03-09T00:27:33.170Z,0
2018-03-09T00:28:32.896Z,0
2018-03-09T00:29:32.867Z,0
2018-03-09T00:30:33.124Z,0
2018-03-09T00:31:32.588Z,0
2018-03-09T00:32:33.140Z,0
2018-03-09T00:33:33.078Z,0
2018-03-09T00:34:32.813Z,0
2018-03-09T00:35:32.802Z,0
2018-03-09T00:36:33.091Z,0
2018-03-09T00:37:33.074Z,0
2018-03-09T00:38:33.016Z,0
2018-03-09T00:39:33.004Z,0
2018-03-09T00:40:32.592Z,0
2018-03-09T00:41:32.989Z,0
2018-03-09T00:42:32.969Z,0
2018-03-09T00:43:32.706Z,0
2018-03-09T00:44:32.695Z,0
2018-03-09T00:45:32.419Z,0
2018-03-09T00:46:32.914Z,0
2018-03-09T00:47:32.907Z,0
2018-03-09T00:48:32.889Z,0
2018-03-09T00:49:32.875Z,0
2018-03-09T00:50:32.609Z,0
2018-03-09T00:51:32.861Z,0
2018-03-09T00:52:32.837Z,0
2018-03-09T00:53:32.824Z,0
2018-03-09T00:54:32.571Z,0
2018-03-09T00:55:32.550Z,0
2018-03-09T00:56:32.540Z,0
2018-03-09T00:57:32.527Z,0
2018-03-09T00:58:32.779Z,0
2018-03-09T00:59:32.756Z,0
2018-03-09T01:00:31.988Z,0
2018-03-09T01:01:32.462Z,0
2018-03-09T01:02:32.701Z,0
2018-03-09T01:03:32.690Z,0
2018-03-09T01:04:32.177Z,0
2018-03-09T01:05:32.781Z,0
2018-03-09T01:06:32.691Z,0
2018-03-09T01:07:32.644Z,0
2018-03-09T01:08:32.635Z,0
2018-03-09T01:09:32.633Z,0
2018-03-09T01:10:32.649Z,0
2018-03-09T01:11:32.631Z,0
2018-03-09T01:12:32.593Z,0
2018-03-09T01:13:32.304Z,0
2018-03-09T01:14:32.554Z,0
2018-03-09T01:15:32.532Z,0
2018-03-09T01:16:32.529Z,0
2018-03-09T01:17:32.501Z,0
2018-03-09T01:18:32.495Z,0
2018-03-09T01:19:32.505Z,0
2018-03-09T01:20:32.230Z,0
2018-03-09T01:21:32.459Z,0
2018-03-09T01:22:32.515Z,0
2018-03-09T01:23:32.425Z,0
2018-03-09T01:25:32.429Z,0
2018-03-09T01:26:32.123Z,0
2018-03-09T01:27:32.374Z,0
2018-03-09T01:28:32.382Z,0
2018-03-09T01:29:32.341Z,0
2018-03-09T01:30:32.071Z,0
2018-03-09T01:31:32.321Z,0
2018-03-09T01:32:32.311Z,0
2018-03-09T01:33:32.290Z,0
2018-03-09T01:34:32.294Z,0
2018-03-09T01:35:32.022Z,0
2018-03-09T01:36:32.245Z,0
2018-03-09T01:37:32.238Z,0
2018-03-09T01:38:32.243Z,0
2018-03-09T01:39:32.237Z,0
2018-03-09T01:40:31.942Z,0
2018-03-09T01:41:32.186Z,0
2018-03-09T01:42:32.164Z,0
2018-03-09T01:43:32.162Z,0
2018-03-09T01:44:32.219Z,0
2018-03-09T01:45:32.135Z,0
2018-03-09T01:46:32.118Z,0
2018-03-09T01:47:31.852Z,0
2018-03-09T01:48:32.101Z,0
2018-03-09T01:49:31.822Z,0
2018-03-09T01:50:32.065Z,0
2018-03-09T01:51:32.051Z,0
2018-03-09T01:52:32.042Z,0
2018-03-09T01:53:32.030Z,0
2018-03-09T01:54:31.773Z,0
2018-03-09T01:55:32.005Z,0
2018-03-09T01:56:31.991Z,0
2018-03-09T01:57:32.087Z,0
2018-03-09T01:58:31.707Z,0
2018-03-09T01:59:31.691Z,0
2018-03-09T02:00:31.685Z,0
2018-03-09T02:01:31.923Z,0
2018-03-09T02:02:31.650Z,0
2018-03-09T02:03:31.893Z,0
2018-03-09T02:04:31.621Z,0
2018-03-09T02:05:31.871Z,0
2018-03-09T02:06:31.851Z,0
2018-03-09T02:07:31.843Z,0
2018-03-09T02:08:31.828Z,0
2018-03-09T02:09:31.048Z,0
2018-03-09T02:10:31.558Z,0
2018-03-09T02:11:31.287Z,0
2018-03-09T02:12:31.273Z,0
2018-03-09T02:13:31.759Z,0
2018-03-09T02:14:31.508Z,0
2018-03-09T02:15:31.494Z,0
2018-03-09T02:16:31.217Z,0
2018-03-09T02:17:31.716Z,0
2018-03-09T02:18:31.195Z,0
2018-03-09T02:19:30.926Z,0
2018-03-09T02:20:31.432Z,0
2018-03-09T02:21:31.415Z,0
2018-03-09T02:22:31.404Z,0
2018-03-09T02:23:31.644Z,0
2018-03-09T02:24:31.425Z,0
2018-03-09T02:25:31.613Z,0
2018-03-09T02:26:31.613Z,0
2018-03-09T02:28:31.626Z,0
2018-03-09T02:29:30.791Z,0
2018-03-09T02:30:31.315Z,0
2018-03-09T02:31:30.776Z,0
2018-03-09T02:32:31.533Z,0
2018-03-09T02:33:30.998Z,0
2018-03-09T02:34:31.009Z,0
2018-03-09T02:35:30.984Z,0
2018-03-09T02:36:31.472Z,0
2018-03-09T02:37:30.953Z,0
2018-03-09T02:38:31.481Z,0
2018-03-09T02:39:31.446Z,0
2018-03-09T02:40:30.909Z,0
2018-03-09T02:41:31.415Z,0
2018-03-09T02:42:31.404Z,0
2018-03-09T02:43:31.386Z,0
2018-03-09T02:44:31.118Z,0
2018-03-09T02:45:31.113Z,0
2018-03-09T02:46:31.092Z,0
2018-03-09T02:47:30.824Z,0
2018-03-09T02:48:31.344Z,0
2018-03-09T02:49:30.801Z,0
2018-03-09T02:50:30.781Z,0
2018-03-09T02:51:30.769Z,0
2018-03-09T02:52:30.758Z,0
2018-03-09T02:53:31.271Z,0
2018-03-09T02:54:30.737Z,0
2018-03-09T02:55:30.718Z,0
2018-03-09T02:56:30.963Z,0
2018-03-09T02:57:30.947Z,0
2018-03-09T02:58:30.928Z,0
2018-03-09T02:59:30.671Z,0
2018-03-09T03:00:31.170Z,0
2018-03-09T03:01:30.889Z,0
2018-03-09T03:02:30.648Z,0
2018-03-09T03:03:30.875Z,0
2018-03-09T03:04:30.882Z,0
2018-03-09T03:05:30.586Z,0
2018-03-09T03:06:30.829Z,0
2018-03-09T03:07:30.813Z,0
2018-03-09T03:08:31.057Z,0
2018-03-09T03:09:30.540Z,0
2018-03-09T03:10:31.033Z,0
2018-03-09T03:11:31.032Z,0
2018-03-09T03:12:30.752Z,0
2018-03-09T03:13:30.741Z,0
2018-03-09T03:14:30.470Z,0
2018-03-09T03:15:30.719Z,0
2018-03-09T03:16:30.700Z,0
2018-03-09T03:17:30.685Z,0
2018-03-09T03:18:30.674Z,0
2018-03-09T03:19:30.666Z,0
2018-03-09T03:20:30.963Z,0
2018-03-09T03:21:30.640Z,0
2018-03-09T03:22:30.925Z,0
2018-03-09T03:23:30.869Z,0
2018-03-09T03:24:30.851Z,0
2018-03-09T03:25:30.834Z,0
2018-03-09T03:26:30.570Z,0
2018-03-09T03:27:30.548Z,0
2018-03-09T03:28:30.813Z,0
2018-03-09T03:29:30.526Z,0
2018-03-09T03:30:30.530Z,0
2018-03-09T03:31:30.528Z,0
2018-03-09T03:32:30.745Z,0
2018-03-09T03:33:30.737Z,0
2018-03-09T03:34:30.461Z,0
2018-03-09T03:35:30.702Z,0
2018-03-09T03:36:30.688Z,0
2018-03-09T03:37:30.676Z,0
2018-03-09T03:38:30.799Z,0
2018-03-09T03:39:30.390Z,0
2018-03-09T03:40:30.634Z,0
2018-03-09T03:41:30.381Z,0
2018-03-09T03:42:30.599Z,0
2018-03-09T03:43:30.586Z,0
2018-03-09T03:44:30.328Z,0
2018-03-09T03:45:30.560Z,0
2018-03-09T03:46:30.547Z,0
2018-03-09T03:47:30.272Z,0
2018-03-09T03:48:30.528Z,0
2018-03-09T03:49:29.998Z,0
2018-03-09T03:50:30.236Z,0
2018-03-09T03:51:30.481Z,0
2018-03-09T03:52:30.212Z,0
2018-03-09T03:53:30.454Z,0
2018-03-09T03:54:30.181Z,0
2018-03-09T03:55:30.426Z,0
2018-03-09T03:56:30.418Z,0
2018-03-09T03:57:30.394Z,0
2018-03-09T03:58:30.438Z,0
2018-03-09T03:59:30.125Z,0
2018-03-09T04:00:30.359Z,0
2018-03-09T04:01:30.347Z,0
2018-03-09T04:02:30.339Z,0
2018-03-09T04:03:30.060Z,0
2018-03-09T04:04:30.317Z,0
2018-03-09T04:05:30.286Z,0
2018-03-09T04:06:30.018Z,0
2018-03-09T04:07:30.263Z,0
2018-03-09T04:08:30.243Z,0
2018-03-09T04:09:29.981Z,0
2018-03-09T04:10:30.221Z,0
2018-03-09T04:11:29.947Z,0
2018-03-09T04:12:30.190Z,0
2018-03-09T04:13:29.934Z,0
2018-03-09T04:14:30.163Z,0
2018-03-09T04:15:29.890Z,0
2018-03-09T04:16:30.137Z,0
2018-03-09T04:17:29.872Z,0
2018-03-09T04:18:30.112Z,0
2018-03-09T04:19:29.848Z,0
2018-03-09T04:20:30.077Z,0
2018-03-09T04:21:30.067Z,0
2018-03-09T04:22:30.046Z,0
2018-03-09T04:23:30.032Z,0
2018-03-09T04:24:29.770Z,0
2018-03-09T04:25:30.020Z,0
2018-03-09T04:26:29.992Z,0
2018-03-09T04:27:29.725Z,0
2018-03-09T04:28:29.970Z,0
2018-03-09T04:29:29.698Z,0
2018-03-09T04:30:29.980Z,0
2018-03-09T04:31:29.927Z,0
2018-03-09T04:32:29.911Z,0
2018-03-09T04:33:29.639Z,0
2018-03-09T04:34:29.947Z,0
2018-03-09T04:35:29.608Z,0
2018-03-09T04:36:29.858Z,0
2018-03-09T04:37:29.836Z,0
2018-03-09T04:38:29.834Z,0
2018-03-09T04:39:29.555Z,0
2018-03-09T04:40:29.803Z,0
2018-03-09T04:41:29.531Z,0
2018-03-09T04:42:29.779Z,0
2018-03-09T04:43:29.511Z,0
2018-03-09T04:44:29.505Z,0
2018-03-09T04:45:29.482Z,0
2018-03-09T04:46:29.723Z,0
2018-03-09T04:47:29.711Z,0
2018-03-09T04:48:29.693Z,0
2018-03-09T04:49:29.422Z,0
2018-03-09T04:50:29.657Z,0
2018-03-09T04:51:29.651Z,0
2018-03-09T04:52:29.391Z,0
2018-03-09T04:53:29.627Z,0
2018-03-09T04:54:29.102Z,0
2018-03-09T04:55:29.607Z,0
2018-03-09T04:56:29.584Z,0
2018-03-09T04:57:29.314Z,0
2018-03-09T04:58:29.047Z,0
2018-03-09T04:59:29.291Z,0
2018-03-09T05:00:29.537Z,0
2018-03-09T05:01:29.528Z,0
2018-03-09T05:02:29.253Z,0
2018-03-09T05:03:29.236Z,0
2018-03-09T05:04:29.234Z,0
2018-03-09T05:05:29.461Z,0
2018-03-09T05:06:29.202Z,0
2018-03-09T05:07:29.193Z,0
2018-03-09T05:08:29.183Z,0
2018-03-09T05:09:29.169Z,0
2018-03-09T05:10:29.509Z,0
2018-03-09T05:11:29.392Z,0
2018-03-09T05:12:29.383Z,0
2018-03-09T05:13:29.409Z,0
2018-03-09T05:14:29.357Z,0
2018-03-09T05:15:29.336Z,0
2018-03-09T05:16:29.075Z,0
2018-03-09T05:17:29.311Z,0
2018-03-09T05:18:29.305Z,0
2018-03-09T05:19:28.796Z,0
2018-03-09T05:20:29.024Z,0
2018-03-09T05:21:29.263Z,0
2018-03-09T05:22:29.249Z,0
2018-03-09T05:23:29.332Z,0
2018-03-09T05:24:28.724Z,0
2018-03-09T05:25:29.216Z,0
2018-03-09T05:26:29.199Z,0
2018-03-09T05:27:28.932Z,0
2018-03-09T05:28:29.173Z,0
2018-03-09T05:29:28.665Z,0
2018-03-09T05:30:29.148Z,5
2018-03-09T05:31:29.133Z,5
2018-03-09T05:32:28.875Z,5
2018-03-09T05:33:29.118Z,5
2018-03-09T05:34:28.845Z,5
2018-03-09T05:35:28.832Z,5
2018-03-09T05:36:28.908Z,5
2018-03-09T05:37:29.062Z,5
2018-03-09T05:38:29.067Z,5
2018-03-09T05:39:28.782Z,5
2018-03-09T05:40:29.039Z,10
2018-03-09T05:41:28.755Z,10
2018-03-09T05:42:29.010Z,10
2018-03-09T05:43:28.741Z,10
2018-03-09T05:44:28.724Z,10
2018-03-09T05:45:28.961Z,10
2018-03-09T05:46:28.967Z,10
2018-03-09T05:47:28.933Z,10
2018-03-09T05:48:28.930Z,10
2018-03-09T05:49:28.408Z,10
2018-03-09T05:50:28.905Z,15
2018-03-09T05:51:28.888Z,10
2018-03-09T05:52:28.878Z,15
2018-03-09T05:53:28.864Z,15
2018-03-09T05:54:28.600Z,15
2018-03-09T05:55:28.852Z,15
2018-03-09T05:56:28.826Z,20
2018-03-09T05:57:28.822Z,25
2018-03-09T05:58:28.802Z,25
2018-03-09T05:59:28.791Z,25
2018-03-09T06:00:28.795Z,35
2018-03-09T06:01:28.526Z,40
2018-03-09T06:02:28.758Z,40
2018-03-09T06:03:28.744Z,45
2018-03-09T06:04:28.741Z,50
2018-03-09T06:05:28.719Z,55
2018-03-09T06:06:28.714Z,55
2018-03-09T06:07:28.715Z,60
2018-03-09T06:08:28.435Z,65
2018-03-09T06:09:28.424Z,75
2018-03-09T06:10:28.657Z,80
2018-03-09T06:11:28.642Z,85
2018-03-09T06:12:28.640Z,95
2018-03-09T06:13:28.361Z,80
2018-03-09T06:14:28.609Z,75
2018-03-09T06:15:28.597Z,85
2018-03-09T06:16:28.587Z,90
2018-03-09T06:17:28.578Z,105
2018-03-09T06:18:28.560Z,75
2018-03-09T06:19:28.293Z,85
2018-03-09T06:20:28.533Z,105
2018-03-09T06:21:28.530Z,105
2018-03-09T06:22:28.520Z,90
2018-03-09T06:23:28.495Z,80
2018-03-09T06:24:28.513Z,65
2018-03-09T06:25:28.488Z,70
2018-03-09T06:26:27.960Z,65
2018-03-09T06:27:28.451Z,70
2018-03-09T06:28:27.964Z,75
2018-03-09T06:29:28.441Z,90
2018-03-09T06:30:27.911Z,95
2018-03-09T06:31:28.155Z,100
2018-03-09T06:32:28.411Z,110
2018-03-09T06:33:28.267Z,145
2018-03-09T06:34:28.385Z,140
2018-03-09T06:35:28.108Z,120
2018-03-09T06:36:28.103Z,100
2018-03-09T06:37:28.358Z,110
2018-03-09T06:38:28.351Z,125
2018-03-09T06:39:28.068Z,125
2018-03-09T06:40:28.053Z,135
2018-03-09T06:41:28.041Z,140
2018-03-09T06:42:28.286Z,160
2018-03-09T06:43:28.279Z,175
2018-03-09T06:44:28.016Z,200
2018-03-09T06:45:28.008Z,235
2018-03-09T06:46:28.313Z,265
2018-03-09T06:47:28.231Z,265
2018-03-09T06:48:28.227Z,255
2018-03-09T06:49:27.948Z,320
2018-03-09T06:50:27.948Z,265
2018-03-09T06:51:28.189Z,300
2018-03-09T06:52:28.404Z,300
2018-03-09T06:53:27.918Z,245
2018-03-09T06:54:28.153Z,230
2018-03-09T06:55:28.165Z,260
2018-03-09T06:56:27.889Z,330
2018-03-09T06:57:28.129Z,215
2018-03-09T06:58:28.127Z,315
2018-03-09T06:59:27.853Z,220
2018-03-09T07:00:27.844Z,240
2018-03-09T07:01:27.834Z,295
2018-03-09T07:02:28.082Z,215
2018-03-09T07:03:27.563Z,205
2018-03-09T07:04:27.837Z,220
2018-03-09T07:05:27.792Z,265
2018-03-09T07:06:28.038Z,475
2018-03-09T07:07:28.037Z,430
2018-03-09T07:08:28.049Z,355
2018-03-09T07:09:27.506Z,460
2018-03-09T07:10:28.002Z,230
2018-03-09T07:11:27.490Z,245
2018-03-09T07:12:28.008Z,325
2018-03-09T07:13:27.724Z,220
2018-03-09T07:14:27.978Z,240
2018-03-09T07:15:28.003Z,495
2018-03-09T07:16:27.951Z,580
2018-03-09T07:17:27.704Z,410
2018-03-09T07:18:27.683Z,250
2018-03-09T07:19:27.933Z,280
2018-03-09T07:20:27.959Z,635
2018-03-09T07:21:27.916Z,610
2018-03-09T07:22:27.656Z,550
2018-03-09T07:23:27.952Z,610
2018-03-09T07:24:27.653Z,610
2018-03-09T07:25:27.911Z,650
2018-03-09T07:26:27.908Z,655
2018-03-09T07:27:27.884Z,640
2018-03-09T07:28:27.880Z,650
2018-03-09T07:29:27.598Z,645
2018-03-09T07:30:27.860Z,620
2018-03-09T07:31:27.593Z,615
2018-03-09T07:32:27.848Z,525
2018-03-09T07:33:27.577Z,305
2018-03-09T07:34:27.883Z,295
2018-03-09T07:35:27.572Z,530
2018-03-09T07:36:27.560Z,540
2018-03-09T07:37:27.809Z,545
2018-03-09T07:38:27.810Z,555
2018-03-09T07:39:27.552Z,560
2018-03-09T07:40:27.803Z,575
2018-03-09T07:41:27.786Z,590
2018-03-09T07:42:27.780Z,600
2018-03-09T07:43:27.830Z,615
2018-03-09T07:44:27.825Z,610
2018-03-09T07:45:27.530Z,620
2018-03-09T07:46:27.862Z,615
2018-03-09T07:47:27.756Z,620
2018-03-09T07:48:27.750Z,620
2018-03-09T07:49:27.524Z,625
2018-03-09T07:50:27.738Z,630
2018-03-09T07:51:27.749Z,615
2018-03-09T07:52:27.491Z,640
2018-03-09T07:53:27.224Z,625
2018-03-09T07:54:27.768Z,625
2018-03-09T07:55:27.477Z,605
2018-03-09T07:56:27.467Z,640
2018-03-09T07:57:27.725Z,445
2018-03-09T07:58:27.453Z,530
2018-03-09T07:59:27.766Z,420
2018-03-09T08:00:27.466Z,365
2018-03-09T08:01:27.723Z,345
2018-03-09T08:02:27.700Z,300
2018-03-09T08:03:27.731Z,280
2018-03-09T08:04:27.432Z,270
2018-03-09T08:05:27.684Z,260
2018-03-09T08:06:27.688Z,255
2018-03-09T08:07:27.767Z,245
2018-03-09T08:08:27.677Z,265
2018-03-09T08:09:27.685Z,275
2018-03-09T08:10:27.419Z,310
2018-03-09T08:11:27.669Z,250
2018-03-09T08:12:27.667Z,255
2018-03-09T08:13:27.664Z,275
2018-03-09T08:14:26.875Z,250
2018-03-09T08:15:27.659Z,265
2018-03-09T08:16:27.786Z,250
2018-03-09T08:17:27.379Z,225
2018-03-09T08:18:27.541Z,240
2018-03-09T08:19:28.148Z,235
2018-03-09T08:20:27.351Z,195
2018-03-09T08:21:28.153Z,195
2018-03-09T08:22:27.339Z,190
2018-03-09T08:23:27.331Z,175
2018-03-09T08:24:27.114Z,170
2018-03-09T08:25:27.578Z,205
2018-03-09T08:26:27.563Z,210
2018-03-09T08:27:27.571Z,240
2018-03-09T08:28:27.546Z,280
2018-03-09T08:29:27.320Z,325
2018-03-09T08:30:27.707Z,315
2018-03-09T08:31:27.276Z,300
2018-03-09T08:32:27.266Z,390
2018-03-09T08:33:27.517Z,380
2018-03-09T08:34:27.499Z,340
2018-03-09T08:35:27.530Z,295
2018-03-09T08:36:27.500Z,330
2018-03-09T08:37:27.231Z,370
2018-03-09T08:38:27.238Z,415
2018-03-09T08:39:27.222Z,415
2018-03-09T08:40:27.022Z,350
2018-03-09T08:41:27.454Z,305
2018-03-09T08:42:27.199Z,290
2018-03-09T08:43:27.451Z,310
2018-03-09T08:44:27.431Z,285
2018-03-09T08:45:27.174Z,255
2018-03-09T08:46:27.470Z,235
2018-03-09T08:47:26.890Z,270
2018-03-09T08:48:27.145Z,280
2018-03-09T08:49:27.156Z,270
2018-03-09T08:50:27.390Z,285
2018-03-09T08:51:27.126Z,335
2018-03-09T08:52:27.373Z,345
2018-03-09T08:53:27.097Z,365
2018-03-09T08:54:26.851Z,375
2018-03-09T08:55:27.359Z,385
2018-03-09T08:56:27.091Z,395
2018-03-09T08:57:27.340Z,405
2018-03-09T08:58:27.099Z,415
2018-03-09T08:59:27.355Z,435
2018-03-09T09:00:27.060Z,465
2018-03-09T09:01:26.798Z,480
2018-03-09T09:02:27.295Z,525
2018-03-09T09:03:27.336Z,530
2018-03-09T09:04:26.788Z,535
2018-03-09T09:05:27.310Z,535
2018-03-09T09:06:27.295Z,510
2018-03-09T09:07:27.300Z,490
2018-03-09T09:08:27.672Z,475
2018-03-09T09:09:27.011Z,465
2018-03-09T09:10:27.268Z,465
2018-03-09T09:11:27.021Z,470
2018-03-09T09:12:27.230Z,475
2018-03-09T09:13:27.359Z,485
2018-03-09T09:14:26.955Z,485
2018-03-09T09:15:27.198Z,460
2018-03-09T09:16:27.198Z,440
2018-03-09T09:17:27.183Z,435
2018-03-09T09:18:27.209Z,440
2018-03-09T09:19:26.936Z,450
2018-03-09T09:20:27.189Z,445
2018-03-09T09:21:27.179Z,435
2018-03-09T09:22:27.159Z,410
2018-03-09T09:23:27.160Z,390
2018-03-09T09:24:26.887Z,415
2018-03-09T09:25:26.885Z,435
2018-03-09T09:26:27.265Z,460
2018-03-09T09:27:27.187Z,480
2018-03-09T09:28:27.129Z,480
2018-03-09T09:29:27.256Z,490
2018-03-09T09:30:26.591Z,500
2018-03-09T09:31:27.148Z,500
2018-03-09T09:32:26.883Z,480
2018-03-09T09:33:27.147Z,480
2018-03-09T09:34:27.100Z,455
2018-03-09T09:35:26.832Z,435
2018-03-09T09:36:27.080Z,485
2018-03-09T09:37:27.063Z,515
2018-03-09T09:38:27.076Z,480
2018-03-09T09:39:26.803Z,415
2018-03-09T09:40:27.054Z,375
2018-03-09T09:41:27.054Z,365
2018-03-09T09:42:26.519Z,445
2018-03-09T09:43:27.024Z,370
2018-03-09T09:44:26.778Z,390
2018-03-09T09:45:27.040Z,345
2018-03-09T09:46:26.513Z,365
2018-03-09T09:47:27.014Z,385
2018-03-09T09:48:26.986Z,375
2018-03-09T09:49:26.736Z,410
2018-03-09T09:50:26.727Z,490
2018-03-09T09:51:27.013Z,445
2018-03-09T09:52:27.032Z,420
2018-03-09T09:53:26.868Z,400
2018-03-09T09:54:26.750Z,390
2018-03-09T09:55:26.712Z,495
2018-03-09T09:56:26.737Z,530
2018-03-09T09:57:26.707Z,515
2018-03-09T09:58:26.710Z,485
2018-03-09T09:59:27.041Z,450
2018-03-09T10:00:26.767Z,455
2018-03-09T10:01:26.753Z,440
2018-03-09T10:02:26.701Z,455
2018-03-09T10:03:26.467Z,485
2018-03-09T10:04:26.720Z,475
2018-03-09T10:05:26.902Z,480
2018-03-09T10:06:26.893Z,465
2018-03-09T10:07:26.951Z,460
2018-03-09T10:08:26.988Z,490
2018-03-09T10:09:26.871Z,510
2018-03-09T10:10:26.869Z,485
2018-03-09T10:11:26.858Z,470
2018-03-09T10:12:26.604Z,485
2018-03-09T10:13:26.858Z,475
2018-03-09T10:14:26.587Z,550
2018-03-09T10:15:26.849Z,575
2018-03-09T10:16:26.997Z,575
2018-03-09T10:17:26.572Z,410
2018-03-09T10:18:26.682Z,330
2018-03-09T10:19:26.816Z,360
2018-03-09T10:20:26.805Z,370
2018-03-09T10:21:26.805Z,435
2018-03-09T10:22:26.802Z,385
2018-03-09T10:23:26.796Z,350
2018-03-09T10:24:26.807Z,425
2018-03-09T10:25:26.829Z,355
2018-03-09T10:26:26.795Z,355
2018-03-09T10:27:26.776Z,445
2018-03-09T10:28:26.792Z,410
2018-03-09T10:29:26.780Z,400
2018-03-09T10:30:26.749Z,440
2018-03-09T10:31:26.497Z,505
2018-03-09T10:32:26.803Z,500
2018-03-09T10:33:26.797Z,520
2018-03-09T10:34:26.504Z,500
2018-03-09T10:35:26.771Z,475
2018-03-09T10:36:26.748Z,475
2018-03-09T10:37:26.768Z,520
2018-03-09T10:38:26.764Z,505
2018-03-09T10:39:26.472Z,455
2018-03-09T10:40:26.778Z,345
2018-03-09T10:41:26.738Z,275
2018-03-09T10:42:26.467Z,240
2018-03-09T10:43:26.699Z,235
2018-03-09T10:44:26.716Z,310
2018-03-09T10:45:26.951Z,325
2018-03-09T10:46:26.806Z,365
2018-03-09T10:47:26.706Z,365
2018-03-09T10:48:26.714Z,375
2018-03-09T10:49:26.415Z,425
2018-03-09T10:50:26.953Z,415
2018-03-09T10:51:26.418Z,445
2018-03-09T10:52:26.848Z,480
2018-03-09T10:53:26.428Z,505
2018-03-09T10:54:26.624Z,525
2018-03-09T10:55:26.631Z,510
2018-03-09T10:56:26.641Z,505
2018-03-09T10:57:26.624Z,540
2018-03-09T10:58:26.113Z,550
2018-03-09T10:59:26.596Z,570
2018-03-09T11:00:26.361Z,560
2018-03-09T11:01:26.347Z,540
2018-03-09T11:02:26.635Z,475
2018-03-09T11:03:26.574Z,515
2018-03-09T11:04:26.733Z,535
2018-03-09T11:05:26.598Z,540
2018-03-09T11:06:26.564Z,510
2018-03-09T11:07:26.563Z,530
2018-03-09T11:08:26.573Z,490
2018-03-09T11:09:26.543Z,495
2018-03-09T11:10:26.562Z,500
2018-03-09T11:11:26.273Z,525
2018-03-09T11:12:26.526Z,500
2018-03-09T11:13:26.583Z,385
2018-03-09T11:14:26.309Z,390
2018-03-09T11:15:26.534Z,480
2018-03-09T11:16:26.544Z,515
2018-03-09T11:17:26.291Z,530
2018-03-09T11:18:26.588Z,510
2018-03-09T11:19:26.278Z,490
2018-03-09T11:20:26.525Z,510
2018-03-09T11:21:26.260Z,545
2018-03-09T11:22:26.482Z,555
2018-03-09T11:23:26.488Z,545
2018-03-09T11:24:26.481Z,535
2018-03-09T11:25:26.465Z,510
2018-03-09T11:26:26.478Z,460
2018-03-09T11:27:26.461Z,420
2018-03-09T11:28:25.951Z,395
2018-03-09T11:29:26.186Z,425
2018-03-09T11:30:26.455Z,475
2018-03-09T11:31:26.461Z,500
2018-03-09T11:32:26.558Z,490
2018-03-09T11:33:26.200Z,450
2018-03-09T11:34:26.218Z,440
2018-03-09T11:35:26.436Z,455
2018-03-09T11:36:25.938Z,470
2018-03-09T11:37:26.156Z,475
2018-03-09T11:38:26.167Z,470
2018-03-09T11:39:26.413Z,475
2018-03-09T11:40:26.143Z,490
2018-03-09T11:41:26.437Z,490
2018-03-09T11:42:26.416Z,485
2018-03-09T11:43:26.430Z,480
2018-03-09T11:44:26.391Z,485
2018-03-09T11:45:26.114Z,450
2018-03-09T11:46:26.378Z,400
2018-03-09T11:47:26.431Z,370
2018-03-09T11:48:26.365Z,340
2018-03-09T11:49:26.133Z,340
2018-03-09T11:50:26.539Z,365
2018-03-09T11:51:26.352Z,380
2018-03-09T11:52:26.204Z,430
2018-03-09T11:53:26.074Z,415
2018-03-09T11:54:26.357Z,410
2018-03-09T11:55:26.348Z,410
2018-03-09T11:56:26.071Z,415
2018-03-09T11:57:26.325Z,430
2018-03-09T11:58:26.064Z,415
2018-03-09T11:59:26.309Z,425
2018-03-09T12:00:26.298Z,395
2018-03-09T12:01:26.033Z,415
2018-03-09T12:02:26.384Z,445
2018-03-09T12:03:26.300Z,465
2018-03-09T12:04:26.046Z,470
2018-03-09T12:05:26.475Z,445
2018-03-09T12:06:26.295Z,430
2018-03-09T12:07:26.289Z,455
2018-03-09T12:08:26.426Z,460
2018-03-09T12:09:26.266Z,450
2018-03-09T12:10:26.258Z,435
2018-03-09T12:11:26.260Z,405
2018-03-09T12:12:26.274Z,355
2018-03-09T12:13:26.256Z,310
2018-03-09T12:14:26.273Z,245
2018-03-09T12:15:25.988Z,210
2018-03-09T12:16:26.068Z,200
2018-03-09T12:17:26.228Z,215
2018-03-09T12:18:26.216Z,340
2018-03-09T12:19:26.216Z,330
2018-03-09T12:20:26.256Z,220
2018-03-09T12:21:26.236Z,195
2018-03-09T12:22:26.198Z,170
2018-03-09T12:23:26.218Z,130
2018-03-09T12:24:26.184Z,125
2018-03-09T12:25:26.196Z,145
2018-03-09T12:26:26.188Z,200
2018-03-09T12:27:26.187Z,260
2018-03-09T12:28:25.912Z,295
2018-03-09T12:29:25.906Z,305
2018-03-09T12:30:26.151Z,270
2018-03-09T12:31:25.891Z,295
2018-03-09T12:32:25.894Z,240
2018-03-09T12:33:26.131Z,210
2018-03-09T12:34:26.131Z,200
2018-03-09T12:35:26.123Z,215
2018-03-09T12:36:25.902Z,275
2018-03-09T12:37:26.110Z,370
2018-03-09T12:38:26.107Z,425
2018-03-09T12:39:25.848Z,415
2018-03-09T12:40:26.122Z,380
2018-03-09T12:41:26.100Z,360
2018-03-09T12:42:26.079Z,355
2018-03-09T12:43:26.099Z,395
2018-03-09T12:44:26.114Z,415
2018-03-09T12:45:26.080Z,425
2018-03-09T12:46:26.429Z,385
2018-03-09T12:47:25.824Z,350
2018-03-09T12:48:26.071Z,300
2018-03-09T12:49:25.808Z,260
2018-03-09T12:50:26.054Z,240
2018-03-09T12:51:25.817Z,285
2018-03-09T12:52:25.775Z,350
2018-03-09T12:53:25.762Z,390
2018-03-09T12:54:26.128Z,365
2018-03-09T12:55:26.007Z,330
2018-03-09T12:56:25.760Z,305
2018-03-09T12:57:25.743Z,275
2018-03-09T12:58:25.754Z,245
2018-03-09T12:59:25.732Z,215
2018-03-09T13:00:26.032Z,180
2018-03-09T13:01:25.738Z,155
2018-03-09T13:02:25.975Z,145
2018-03-09T13:03:25.702Z,140
2018-03-09T13:04:25.919Z,130
2018-03-09T13:05:25.890Z,165
2018-03-09T13:06:25.950Z,250
2018-03-09T13:07:25.751Z,305
2018-03-09T13:08:25.700Z,350
2018-03-09T13:09:25.660Z,380
2018-03-09T13:10:25.924Z,380
2018-03-09T13:11:26.024Z,385
2018-03-09T13:12:25.665Z,380
2018-03-09T13:13:25.650Z,340
2018-03-09T13:14:25.643Z,285
2018-03-09T13:15:25.672Z,260
2018-03-09T13:16:25.921Z,245
2018-03-09T13:17:25.631Z,260
2018-03-09T13:18:25.653Z,280
2018-03-09T13:19:25.877Z,275
2018-03-09T13:20:25.629Z,240
2018-03-09T13:21:25.610Z,195
2018-03-09T13:22:25.853Z,150
2018-03-09T13:23:25.609Z,170
2018-03-09T13:24:25.877Z,250
2018-03-09T13:25:25.823Z,315
2018-03-09T13:26:25.565Z,350
2018-03-09T13:27:25.828Z,400
2018-03-09T13:28:25.547Z,460
2018-03-09T13:29:25.798Z,420
2018-03-09T13:30:25.801Z,370
2018-03-09T13:31:25.805Z,330
2018-03-09T13:32:25.815Z,325
2018-03-09T13:33:25.783Z,325
2018-03-09T13:34:25.772Z,265
2018-03-09T13:35:25.536Z,240
2018-03-09T13:36:25.764Z,235
2018-03-09T13:37:25.262Z,235
2018-03-09T13:38:25.787Z,240
2018-03-09T13:39:25.771Z,240
2018-03-09T13:40:25.482Z,240
2018-03-09T13:41:25.732Z,260
2018-03-09T13:42:25.762Z,290
2018-03-09T13:43:25.726Z,300
2018-03-09T13:44:25.724Z,320
2018-03-09T13:45:25.697Z,315
2018-03-09T13:46:25.455Z,325
2018-03-09T13:47:26.064Z,300
2018-03-09T13:48:25.435Z,270
2018-03-09T13:49:25.688Z,275
2018-03-09T13:50:25.695Z,290
2018-03-09T13:51:25.428Z,290
2018-03-09T13:52:25.684Z,300
2018-03-09T13:53:25.402Z,315
2018-03-09T13:54:25.648Z,310
2018-03-09T13:55:25.647Z,290
2018-03-09T13:56:25.400Z,255
2018-03-09T13:57:25.659Z,230
2018-03-09T13:58:25.646Z,215
2018-03-09T13:59:25.617Z,195
2018-03-09T14:00:25.608Z,175
2018-03-09T14:01:25.610Z,160
2018-03-09T14:02:25.609Z,155
2018-03-09T14:03:25.658Z,160
2018-03-09T14:04:25.336Z,150
2018-03-09T14:05:25.577Z,140
2018-03-09T14:06:25.585Z,135
2018-03-09T14:07:25.597Z,150
2018-03-09T14:08:25.572Z,205
2018-03-09T14:09:25.574Z,255
2018-03-09T14:10:25.590Z,270
2018-03-09T14:11:25.296Z,285
2018-03-09T14:12:25.288Z,275
2018-03-09T14:13:25.531Z,270